Ana Sayfa
METAR-TAF:

METAR-TAF

Havaalanları :

Sinop Havalimanı

Sinop, Türkiye

Enlem: 42-00-57N, Boylam: 035-03-59E, yükseklik: 7 m

Güncel hava durumu gözlemi

Rapor saat 12:50 UTC de 11 saat ve 0 dakika önce yapıldı.
Rüzgar güneydoğudan 5 kt, doğu ve güney arasında değişken
Sıcaklık 15°C
Nem 48%
Basınç 1011 hPa
Görüş mesafesi 10 km veya daha fazla
1500 m altında bulut yok ve kümülonimbus yok

METAR: LTCM 231250Z 14005KT 100V170 CAVOK 15/04 Q1011

Saat: 02:50 (23:50 UTC)

Tahmin

Rapor saat 13:40 UTC de 10 saat ve 10 dakika önce yapıldı.
Ayın 23'si saat 15 UTC'den ayın 23'si saat 24 UTC'ye kadar geçerli Tahmin
Rüzgar güney/güneydoğudan 8 kt
Görüş mesafesi 10 km veya daha fazla
1500 m altında bulut yok ve kümülonimbus yok

TAF: LTCM 231340Z 2315/2324 15008KT CAVOK

4.000'den fazla havaalanı için hava durumu gözlemleri ve tahminleri (METAR ve TAF raporları).

Kullanılabilir istasyonlar harita üzerinde sarı ve kırmızı noktalarla gösterilir.

İstasyonun adını görmek için fareyi noktanın üzerinde gezdirin.

Sonrasında hava gözlem ve tahminlerini görmek için tıklayın.

Haritayı değiştirmek için: yaklaştırmak için siyah artı işaretli yeşil düğmeye ve uzaklaştırmak için de eksi işaretli düğmeye hızla tıklayın; bitişik haritalar için yeşil okları kullanın.


METAR-TAF: